createdAt,value
2019-04-06T00:01:03.996Z,26.90
2019-04-06T00:03:38.621Z,26.07
2019-04-06T00:06:05.362Z,29.47
2019-04-06T00:08:31.896Z,25.90
2019-04-06T00:10:58.433Z,29.57
2019-04-06T00:13:24.967Z,27.37
2019-04-06T00:15:51.503Z,31.33
2019-04-06T00:18:18.040Z,26.90
2019-04-06T00:20:44.572Z,26.20
2019-04-06T00:23:11.114Z,25.53
2019-04-06T00:25:44.413Z,27.90
2019-04-06T00:28:06.334Z,30.40
2019-04-06T00:30:34.706Z,27.90
2019-04-06T00:33:05.851Z,25.00
2019-04-06T00:35:32.322Z,24.87
2019-04-06T00:37:58.919Z,30.23
2019-04-06T00:40:25.455Z,31.17
2019-04-06T00:42:51.991Z,28.43
2019-04-06T00:45:18.727Z,27.20
2019-04-06T00:47:45.311Z,28.83
2019-04-06T00:50:12.003Z,27.07
2019-04-06T00:52:38.845Z,29.80
2019-04-06T00:55:05.789Z,30.80
2019-04-06T00:57:32.326Z,27.20
2019-04-06T00:59:58.862Z,30.30
2019-04-06T01:02:25.400Z,27.50
2019-04-06T01:04:51.930Z,32.57
2019-04-06T01:07:18.494Z,31.23
2019-04-06T01:09:46.030Z,33.83
2019-04-06T01:12:12.467Z,29.73
2019-04-06T01:14:38.994Z,34.47
2019-04-06T01:17:05.527Z,31.23
2019-04-06T01:19:32.063Z,32.70
2019-04-06T01:21:59.416Z,35.43
2019-04-06T01:24:25.952Z,30.67
2019-04-06T01:26:52.591Z,29.97
2019-04-06T01:29:19.022Z,30.77
2019-04-06T01:31:45.966Z,34.93
2019-04-06T01:34:12.431Z,33.57
2019-04-06T01:36:38.935Z,32.60
2019-04-06T01:39:05.678Z,33.53
2019-04-06T01:41:32.210Z,37.10
2019-04-06T01:43:58.746Z,39.47
2019-04-06T01:46:25.911Z,35.93
2019-04-06T01:48:52.537Z,31.77
2019-04-06T01:51:19.174Z,41.43
2019-04-06T01:53:45.712Z,32.77
2019-04-06T01:56:18.322Z,36.20
2019-04-06T01:58:40.720Z,37.57
2019-04-06T02:01:24.461Z,34.73
2019-04-06T02:03:51.611Z,37.27
2019-04-06T02:06:18.251Z,34.90
2019-04-06T02:08:44.985Z,33.43
2019-04-06T02:11:11.519Z,40.47
2019-04-06T02:13:38.054Z,36.77
2019-04-06T02:16:04.999Z,36.80
2019-04-06T02:18:40.545Z,34.93
2019-04-06T02:21:07.081Z,37.33
2019-04-06T02:23:33.614Z,37.00
2019-04-06T02:26:00.150Z,36.10
2019-04-06T02:28:26.685Z,37.60
2019-04-06T02:31:01.312Z,35.43
2019-04-06T02:33:34.392Z,37.07
2019-04-06T02:36:19.816Z,38.13
2019-04-06T02:39:04.952Z,31.13
2019-04-06T02:41:36.509Z,38.67
2019-04-06T02:44:03.448Z,38.70
2019-04-06T02:46:31.211Z,32.77
2019-04-06T02:48:57.867Z,38.77
2019-04-06T02:51:24.389Z,31.30
2019-04-06T02:53:51.000Z,34.70
2019-04-06T02:56:17.668Z,37.67
2019-04-06T02:58:44.807Z,33.27
2019-04-06T03:01:11.649Z,32.13
2019-04-06T03:03:38.081Z,34.17
2019-04-06T03:06:04.730Z,36.17
2019-04-06T03:08:31.272Z,33.57
2019-04-06T03:10:58.104Z,33.03
2019-04-06T03:13:24.639Z,37.03
2019-04-06T03:15:51.168Z,34.77
2019-04-06T03:18:17.771Z,32.57
2019-04-06T03:20:44.240Z,37.10
2019-04-06T03:23:10.774Z,32.03
2019-04-06T03:25:37.904Z,32.33
2019-04-06T03:28:04.975Z,34.57
2019-04-06T03:30:31.508Z,34.47
2019-04-06T03:32:57.947Z,36.60
2019-04-06T03:35:24.536Z,31.23
2019-04-06T03:37:51.013Z,34.93
2019-04-06T03:40:17.547Z,34.07
2019-04-06T03:42:44.644Z,40.10
2019-04-06T03:45:11.644Z,37.37
2019-04-06T03:47:38.310Z,29.43
2019-04-06T03:50:05.959Z,36.07
2019-04-06T03:52:32.364Z,32.07
2019-04-06T03:54:59.105Z,34.57
2019-04-06T03:57:25.446Z,34.97
2019-04-06T03:59:51.745Z,37.10
2019-04-06T04:02:18.100Z,33.70
2019-04-06T04:04:44.428Z,35.60
2019-04-06T04:07:11.159Z,34.67
2019-04-06T04:09:38.107Z,32.03
2019-04-06T04:12:04.409Z,40.53
2019-04-06T04:14:30.774Z,35.83
2019-04-06T04:16:57.108Z,34.77
2019-04-06T04:19:23.361Z,37.13
2019-04-06T04:21:49.764Z,36.70
2019-04-06T04:24:16.233Z,36.50
2019-04-06T04:26:42.628Z,34.07
2019-04-06T04:29:09.112Z,32.00
2019-04-06T04:31:35.392Z,34.10
2019-04-06T04:34:01.826Z,31.87
2019-04-06T04:36:28.161Z,35.70
2019-04-06T04:38:54.701Z,35.90
2019-04-06T04:41:21.224Z,34.77
2019-04-06T04:43:47.864Z,34.63
2019-04-06T04:46:14.187Z,35.13
2019-04-06T04:48:40.525Z,37.67
2019-04-06T04:51:06.860Z,34.67
2019-04-06T04:53:33.183Z,36.00
2019-04-06T04:55:59.721Z,36.27
2019-04-06T04:58:26.052Z,46.77
2019-04-06T05:00:52.332Z,39.80
2019-04-06T05:03:19.314Z,38.23
2019-04-06T05:05:45.901Z,39.07
2019-04-06T05:08:12.186Z,40.93
2019-04-06T05:10:38.629Z,36.97
2019-04-06T05:13:05.362Z,40.90
2019-04-06T05:15:41.338Z,38.40
2019-04-06T05:18:07.990Z,42.70
2019-04-06T05:20:34.908Z,37.80
2019-04-06T05:23:01.230Z,40.63
2019-04-06T05:25:27.844Z,43.53
2019-04-06T05:27:54.301Z,41.03
2019-04-06T05:30:20.835Z,41.77
2019-04-06T05:32:47.268Z,38.73
2019-04-06T05:35:13.926Z,41.70
2019-04-06T05:37:40.248Z,42.53
2019-04-06T05:40:06.633Z,42.10
2019-04-06T05:42:32.941Z,42.07
2019-04-06T05:44:59.333Z,39.77
2019-04-06T05:47:25.589Z,42.03
2019-04-06T05:49:51.989Z,40.67
2019-04-06T05:52:18.744Z,41.80
2019-04-06T05:54:45.163Z,42.10
2019-04-06T05:57:11.919Z,42.73
2019-04-06T05:59:40.430Z,42.80
2019-04-06T06:02:07.819Z,44.67
2019-04-06T06:04:35.920Z,44.00
2019-04-06T06:07:02.538Z,47.07
2019-04-06T06:09:29.039Z,41.27
2019-04-06T06:11:55.999Z,46.83
2019-04-06T06:14:22.563Z,45.40
2019-04-06T06:16:48.988Z,50.53
2019-04-06T06:19:15.298Z,45.17
2019-04-06T06:21:41.657Z,48.87
2019-04-06T06:24:08.089Z,47.03
2019-04-06T06:26:34.693Z,46.80
2019-04-06T06:29:01.057Z,52.20
2019-04-06T06:31:27.387Z,45.63
2019-04-06T06:33:54.288Z,47.53
2019-04-06T06:36:20.555Z,47.57
2019-04-06T06:38:46.904Z,48.33
2019-04-06T06:41:13.223Z,49.50
2019-04-06T06:43:39.554Z,46.63
2019-04-06T06:46:05.870Z,50.40
2019-04-06T06:48:32.317Z,46.70
2019-04-06T06:50:58.647Z,51.80
2019-04-06T06:53:44.752Z,47.80
2019-04-06T06:56:11.068Z,49.33
2019-04-06T06:58:37.399Z,52.20
2019-04-06T07:01:03.834Z,49.30
2019-04-06T07:03:30.164Z,52.60
2019-04-06T07:05:56.492Z,50.80
2019-04-06T07:08:22.924Z,54.13
2019-04-06T07:10:49.353Z,53.07
2019-04-06T07:13:15.892Z,54.60
2019-04-06T07:15:43.392Z,54.47
2019-04-06T07:18:09.988Z,56.30
2019-04-06T07:20:36.523Z,51.57
2019-04-06T07:23:03.148Z,57.37
2019-04-06T07:25:30.169Z,55.07
2019-04-06T07:27:56.856Z,59.97
2019-04-06T07:30:23.379Z,58.03
2019-04-06T07:32:49.916Z,57.20
2019-04-06T07:35:16.329Z,59.90
2019-04-06T07:37:42.679Z,56.30
2019-04-06T07:40:11.149Z,54.07
2019-04-06T07:42:37.763Z,53.37
2019-04-06T07:45:06.922Z,53.73
2019-04-06T07:47:33.325Z,59.93
2019-04-06T07:49:59.738Z,59.40
2019-04-06T07:52:26.521Z,61.57
2019-04-06T07:54:53.150Z,50.00
2019-04-06T07:57:19.495Z,52.87
2019-04-06T07:59:45.797Z,56.53
2019-04-06T08:02:12.103Z,55.17
2019-04-06T08:04:38.561Z,51.73
2019-04-06T08:07:04.994Z,50.43
2019-04-06T08:09:31.452Z,53.40
2019-04-06T08:11:57.858Z,56.33
2019-04-06T08:14:24.290Z,56.23
2019-04-06T08:16:50.844Z,54.30
2019-04-06T08:19:17.089Z,53.00
2019-04-06T08:21:43.486Z,48.73
2019-04-06T08:24:10.021Z,49.50
2019-04-06T08:26:36.484Z,49.73
2019-04-06T08:29:03.104Z,53.37
2019-04-06T08:31:29.567Z,50.13
2019-04-06T08:33:56.022Z,48.47
2019-04-06T08:36:22.595Z,46.10
2019-04-06T08:38:49.090Z,49.53
2019-04-06T08:41:15.664Z,50.00
2019-04-06T08:43:42.098Z,44.43
2019-04-06T08:46:08.429Z,48.40
2019-04-06T08:48:34.759Z,46.03
2019-04-06T08:51:01.120Z,42.17
2019-04-06T08:53:27.845Z,45.33
2019-04-06T08:55:54.515Z,38.53
2019-04-06T08:58:20.800Z,39.67
2019-04-06T09:00:47.126Z,38.47
2019-04-06T09:03:13.624Z,40.10
2019-04-06T09:05:59.988Z,38.40
2019-04-06T09:08:26.618Z,37.80
2019-04-06T09:10:52.930Z,37.37
2019-04-06T09:13:19.257Z,37.63
2019-04-06T09:15:45.591Z,36.00
2019-04-06T09:18:11.927Z,35.13
2019-04-06T09:20:38.150Z,35.03
2019-04-06T09:23:04.694Z,33.93
2019-04-06T09:25:31.265Z,36.43
2019-04-06T09:27:57.821Z,35.97
2019-04-06T09:30:24.188Z,34.03
2019-04-06T09:32:50.478Z,32.67
2019-04-06T09:35:16.845Z,32.67
2019-04-06T09:37:43.176Z,33.17
2019-04-06T09:40:09.816Z,38.47
2019-04-06T09:42:36.369Z,32.40
2019-04-06T09:45:13.080Z,33.03
2019-04-06T09:47:51.528Z,36.07
2019-04-06T09:50:28.931Z,31.03
2019-04-06T09:53:02.838Z,30.67
2019-04-06T09:55:33.938Z,30.77
2019-04-06T09:58:14.583Z,28.03
2019-04-06T10:00:45.581Z,28.43
2019-04-06T10:03:30.796Z,28.40
2019-04-06T10:06:08.051Z,28.17
2019-04-06T10:08:37.545Z,26.83
2019-04-06T10:11:08.792Z,28.50
2019-04-06T10:13:36.944Z,26.73
2019-04-06T10:16:11.431Z,27.20
2019-04-06T10:18:55.006Z,27.17
2019-04-06T10:21:32.515Z,27.23
2019-04-06T10:24:00.809Z,27.77
2019-04-06T10:26:32.218Z,31.30
2019-04-06T10:29:09.632Z,31.43
2019-04-06T10:31:46.815Z,28.20
2019-04-06T10:34:27.012Z,31.17
2019-04-06T10:36:55.189Z,27.47
2019-04-06T10:39:32.532Z,27.37
2019-04-06T10:42:01.115Z,25.10
2019-04-06T10:44:29.289Z,25.37
2019-04-06T10:47:15.789Z,31.07
2019-04-06T10:49:49.628Z,24.47
2019-04-06T10:52:36.028Z,25.30
2019-04-06T10:55:06.305Z,22.70
2019-04-06T10:57:46.702Z,22.60
2019-04-06T11:00:30.246Z,23.53
2019-04-06T11:02:58.454Z,25.00
2019-04-06T11:05:43.507Z,27.97
2019-04-06T11:08:28.324Z,25.60
2019-04-06T11:10:56.617Z,26.07
2019-04-06T11:13:25.021Z,25.20
2019-04-06T11:16:10.354Z,27.97
2019-04-06T11:18:47.597Z,29.83
2019-04-06T11:21:34.339Z,29.50
2019-04-06T11:24:11.690Z,27.33
2019-04-06T11:26:40.015Z,25.83
2019-04-06T11:29:08.378Z,30.20
2019-04-06T11:31:45.805Z,29.27
2019-04-06T11:34:29.462Z,29.93
2019-04-06T11:36:57.795Z,25.63
2019-04-06T11:39:26.002Z,29.03
2019-04-06T11:41:55.045Z,26.10
2019-04-06T11:44:23.819Z,28.30
2019-04-06T11:47:07.283Z,31.10
2019-04-06T11:49:48.003Z,28.57
2019-04-06T11:52:33.332Z,28.10
2019-04-06T11:55:01.597Z,32.37
2019-04-06T11:57:42.065Z,33.40
2019-04-06T12:00:25.883Z,31.33
2019-04-06T12:02:55.465Z,28.93
2019-04-06T12:05:23.788Z,31.10
2019-04-06T12:07:57.732Z,31.27
2019-04-06T12:10:26.478Z,33.43
2019-04-06T12:13:03.771Z,32.67
2019-04-06T12:15:34.708Z,33.13
2019-04-06T12:18:05.637Z,35.77
2019-04-06T12:20:36.584Z,31.40
2019-04-06T12:23:14.091Z,32.80
2019-04-06T12:25:42.866Z,29.93
2019-04-06T12:28:11.208Z,34.33
2019-04-06T12:30:45.668Z,34.30
2019-04-06T12:33:32.020Z,32.57
2019-04-06T12:36:17.031Z,34.77
2019-04-06T12:38:56.991Z,32.40
2019-04-06T12:41:41.847Z,33.17
2019-04-06T12:44:15.962Z,32.63
2019-04-06T12:47:02.647Z,35.93
2019-04-06T12:49:49.294Z,31.87
2019-04-06T12:52:32.866Z,31.33
2019-04-06T12:55:06.922Z,29.27
2019-04-06T12:57:47.587Z,29.37
2019-04-06T13:00:25.141Z,32.13
2019-04-06T13:02:56.849Z,27.93
2019-04-06T13:05:28.190Z,30.57
2019-04-06T13:08:13.356Z,26.70
2019-04-06T13:10:50.995Z,28.17
2019-04-06T13:13:22.194Z,26.33
2019-04-06T13:15:50.368Z,28.33
2019-04-06T13:18:19.633Z,26.00
2019-04-06T13:20:51.143Z,27.13
2019-04-06T13:23:36.293Z,26.30
2019-04-06T13:26:07.607Z,29.03
2019-04-06T13:28:47.942Z,28.77
2019-04-06T13:31:25.677Z,30.17
2019-04-06T13:34:10.866Z,26.97
2019-04-06T13:36:51.428Z,29.50
2019-04-06T13:39:35.006Z,28.10
2019-04-06T13:42:15.247Z,26.63
2019-04-06T13:44:59.981Z,27.20
2019-04-06T13:47:34.093Z,27.07
2019-04-06T13:50:11.596Z,27.33
2019-04-06T13:52:40.271Z,27.90
2019-04-06T13:55:14.502Z,27.83
2019-04-06T13:57:46.222Z,29.50
2019-04-06T14:00:27.142Z,29.90
2019-04-06T14:02:55.397Z,26.63
2019-04-06T14:05:30.280Z,28.40
2019-04-06T14:08:15.321Z,26.87
2019-04-06T14:11:00.373Z,25.57
2019-04-06T14:13:38.192Z,25.80
2019-04-06T14:16:12.235Z,28.27
2019-04-06T14:18:43.415Z,25.67
2019-04-06T14:21:17.585Z,27.50
2019-04-06T14:23:46.285Z,26.17
2019-04-06T14:26:23.459Z,27.03
2019-04-06T14:28:58.396Z,30.50
2019-04-06T14:31:30.289Z,30.33
2019-04-06T14:34:12.760Z,29.17
2019-04-06T14:36:58.175Z,29.40
2019-04-06T14:39:26.429Z,32.17
2019-04-06T14:41:55.092Z,29.60
2019-04-06T14:44:23.261Z,28.63
2019-04-06T14:46:51.488Z,28.00
2019-04-06T14:49:31.134Z,30.40
2019-04-06T14:51:58.649Z,30.70
2019-04-06T14:54:32.783Z,28.53
2019-04-06T14:57:16.153Z,27.90
2019-04-06T14:59:44.713Z,30.43
2019-04-06T15:02:18.920Z,28.30
2019-04-06T15:04:50.085Z,26.90
2019-04-06T15:07:24.399Z,27.93
2019-04-06T15:09:52.600Z,27.03
2019-04-06T15:12:23.063Z,30.03
2019-04-06T15:14:53.587Z,29.70
2019-04-06T15:17:37.255Z,30.33
2019-04-06T15:20:06.944Z,30.83
2019-04-06T15:22:53.169Z,29.63
2019-04-06T15:25:28.920Z,28.20
2019-04-06T15:28:20.003Z,32.57
2019-04-06T15:30:51.167Z,30.33
2019-04-06T15:33:19.689Z,30.33
2019-04-06T15:35:54.478Z,32.07
2019-04-06T15:38:28.644Z,34.40
2019-04-06T15:40:59.939Z,37.60
2019-04-06T15:43:37.625Z,40.33
2019-04-06T15:46:17.925Z,37.10
2019-04-06T15:48:49.140Z,38.40
2019-04-06T15:51:35.729Z,35.73
2019-04-06T15:54:07.213Z,39.13
2019-04-06T15:56:54.349Z,41.10
2019-04-06T15:59:22.590Z,42.47
2019-04-06T16:02:02.335Z,38.97
2019-04-06T16:04:48.277Z,45.93
2019-04-06T16:07:35.151Z,40.17
2019-04-06T16:10:18.670Z,38.13
2019-04-06T16:13:04.932Z,40.20
2019-04-06T16:15:45.299Z,39.63
2019-04-06T16:18:30.427Z,37.43
2019-04-06T16:21:15.353Z,41.53
2019-04-06T16:24:01.723Z,40.47
2019-04-06T16:26:25.508Z,43.20
2019-04-06T16:28:53.821Z,40.47
2019-04-06T16:31:34.374Z,40.47
2019-04-06T16:34:11.970Z,42.20
2019-04-06T16:36:43.043Z,44.63
2019-04-06T16:39:14.050Z,41.03
2019-04-06T16:41:45.815Z,40.57
2019-04-06T16:44:32.926Z,39.07
2019-04-06T16:47:01.413Z,44.37
2019-04-06T16:49:48.013Z,43.00
2019-04-06T16:52:16.216Z,41.53
2019-04-06T16:54:56.558Z,43.83
2019-04-06T16:57:41.702Z,41.03
2019-04-06T17:00:27.196Z,43.20
2019-04-06T17:02:58.743Z,49.03
2019-04-06T17:05:27.132Z,44.37
2019-04-06T17:08:12.772Z,43.70
2019-04-06T17:10:56.973Z,43.13
2019-04-06T17:13:28.442Z,47.07
2019-04-06T17:15:59.559Z,46.87
2019-04-06T17:18:43.302Z,46.13
2019-04-06T17:21:24.058Z,42.60
2019-04-06T17:24:04.334Z,47.23
2019-04-06T17:26:38.754Z,43.70
2019-04-06T17:29:23.598Z,43.27
2019-04-06T17:32:04.226Z,43.87
2019-04-06T17:34:55.216Z,42.63
2019-04-06T17:37:25.416Z,45.13
2019-04-06T17:39:53.784Z,46.50
2019-04-06T17:42:37.897Z,48.70
2019-04-06T17:45:10.386Z,44.77
2019-04-06T17:47:41.515Z,45.53
2019-04-06T17:50:13.171Z,46.37
2019-04-06T17:52:41.436Z,42.50
2019-04-06T17:55:12.718Z,46.37
2019-04-06T17:57:47.033Z,50.70
2019-04-06T18:00:25.353Z,43.43
2019-04-06T18:03:02.837Z,44.47
2019-04-06T18:05:40.227Z,43.17
2019-04-06T18:08:23.761Z,45.03
2019-04-06T18:10:58.231Z,46.43
2019-04-06T18:13:32.624Z,46.47
2019-04-06T18:15:59.034Z,49.50
2019-04-06T18:18:25.612Z,47.53
2019-04-06T18:20:52.103Z,45.87
2019-04-06T18:23:18.756Z,43.47
2019-04-06T18:25:45.174Z,48.83
2019-04-06T18:28:11.656Z,46.20
2019-04-06T18:30:38.411Z,44.40
2019-04-06T18:33:07.196Z,46.03
2019-04-06T18:35:33.873Z,45.10
2019-04-06T18:38:11.228Z,43.77
2019-04-06T18:40:38.117Z,42.80
2019-04-06T18:43:04.542Z,46.00
2019-04-06T18:45:33.748Z,43.03
2019-04-06T18:48:00.019Z,47.40
2019-04-06T18:50:34.858Z,45.23
2019-04-06T18:52:54.576Z,51.57
2019-04-06T18:55:20.836Z,53.10
2019-04-06T18:57:48.010Z,49.37
2019-04-06T19:00:15.007Z,54.93
2019-04-06T19:02:41.452Z,53.97
2019-04-06T19:05:08.282Z,48.60
2019-04-06T19:07:34.856Z,50.57
2019-04-06T19:10:22.029Z,48.87
2019-04-06T19:12:48.508Z,54.47
2019-04-06T19:15:14.992Z,47.40
2019-04-06T19:17:41.528Z,54.50
2019-04-06T19:20:08.369Z,53.33
2019-04-06T19:22:35.091Z,50.80
2019-04-06T19:25:01.653Z,49.13
2019-04-06T19:27:29.743Z,48.87
2019-04-06T19:29:56.805Z,51.17
2019-04-06T19:32:23.302Z,50.87
2019-04-06T19:34:49.559Z,46.27
2019-04-06T19:37:16.034Z,47.43
2019-04-06T19:39:42.363Z,48.53
2019-04-06T19:42:09.260Z,44.87
2019-04-06T19:44:36.013Z,52.97
2019-04-06T19:47:02.839Z,46.07
2019-04-06T19:49:29.579Z,48.33
2019-04-06T19:51:57.158Z,43.60
2019-04-06T19:54:23.652Z,48.13
2019-04-06T19:56:49.934Z,58.10
2019-04-06T19:59:16.725Z,51.57
2019-04-06T20:01:43.056Z,51.37
2019-04-06T20:04:09.486Z,46.33
2019-04-06T20:06:36.103Z,50.10
2019-04-06T20:09:05.328Z,49.83
2019-04-06T20:11:32.152Z,49.37
2019-04-06T20:13:58.860Z,47.07
2019-04-06T20:16:25.295Z,48.97
2019-04-06T20:18:52.148Z,52.13
2019-04-06T20:21:19.001Z,51.37
2019-04-06T20:23:47.590Z,47.60
2019-04-06T20:26:13.881Z,47.53
2019-04-06T20:28:41.108Z,44.33
2019-04-06T20:31:07.432Z,49.50
2019-04-06T20:33:35.067Z,51.17
2019-04-06T20:36:02.473Z,46.07
2019-04-06T20:38:29.065Z,49.33
2019-04-06T20:40:55.497Z,51.13
2019-04-06T20:43:21.829Z,45.27
2019-04-06T20:45:48.065Z,46.07
2019-04-06T20:48:14.423Z,48.07
2019-04-06T20:50:41.025Z,45.50
2019-04-06T20:53:07.354Z,50.10
2019-04-06T20:55:33.684Z,45.77
2019-04-06T20:58:00.016Z,48.73
2019-04-06T21:00:26.775Z,48.50
2019-04-06T21:02:53.673Z,49.70
2019-04-06T21:05:20.132Z,48.17
2019-04-06T21:07:46.803Z,49.37
2019-04-06T21:10:13.794Z,48.80
2019-04-06T21:12:40.150Z,48.23
2019-04-06T21:15:16.957Z,52.63
2019-04-06T21:17:35.351Z,50.93
2019-04-06T21:20:03.926Z,47.57
2019-04-06T21:22:30.643Z,56.57
2019-04-06T21:24:57.248Z,48.43
2019-04-06T21:27:23.934Z,52.10
2019-04-06T21:29:50.740Z,50.87
2019-04-06T21:32:17.251Z,53.37
2019-04-06T21:34:44.791Z,52.17
2019-04-06T21:37:11.134Z,50.13
2019-04-06T21:39:37.460Z,58.00
2019-04-06T21:42:04.510Z,58.73
2019-04-06T21:44:31.091Z,50.53
2019-04-06T21:46:57.507Z,52.63
2019-04-06T21:49:24.155Z,53.10
2019-04-06T21:51:50.658Z,48.03
2019-04-06T21:54:17.594Z,50.57
2019-04-06T21:56:44.024Z,56.60
2019-04-06T21:59:10.993Z,51.23
2019-04-06T22:01:38.631Z,55.10
2019-04-06T22:04:05.394Z,50.63
2019-04-06T22:06:32.105Z,60.80
2019-04-06T22:08:58.444Z,53.63
2019-04-06T22:11:25.084Z,58.27
2019-04-06T22:13:52.190Z,55.93
2019-04-06T22:16:19.123Z,57.60
2019-04-06T22:18:45.503Z,59.10
2019-04-06T22:21:11.765Z,59.00
2019-04-06T22:23:42.321Z,56.03
2019-04-06T22:26:07.195Z,60.10
2019-04-06T22:28:34.933Z,54.00
2019-04-06T22:31:01.819Z,56.90
2019-04-06T22:33:28.634Z,55.37
2019-04-06T22:35:55.715Z,59.33
2019-04-06T22:38:22.730Z,55.50
2019-04-06T22:40:50.331Z,59.00
2019-04-06T22:43:17.332Z,55.60
2019-04-06T22:45:43.846Z,55.10
2019-04-06T22:48:10.447Z,51.60
2019-04-06T22:50:36.911Z,52.75
2019-04-06T22:53:03.801Z,53.77
2019-04-06T22:55:30.511Z,55.87
2019-04-06T22:57:57.030Z,50.63
2019-04-06T23:00:40.363Z,47.77
2019-04-06T23:03:27.354Z,50.10
2019-04-06T23:05:58.621Z,51.83
2019-04-06T23:08:25.596Z,50.53
2019-04-06T23:10:53.048Z,50.80
2019-04-06T23:13:20.313Z,49.50
2019-04-06T23:15:47.948Z,48.73
2019-04-06T23:18:15.062Z,45.93
2019-04-06T23:20:41.834Z,48.30
2019-04-06T23:23:08.497Z,50.33
2019-04-06T23:25:34.905Z,48.57
2019-04-06T23:28:01.374Z,47.03
2019-04-06T23:30:28.219Z,48.40
2019-04-06T23:32:54.699Z,53.03
2019-04-06T23:35:21.236Z,50.17
2019-04-06T23:37:48.249Z,51.20
2019-04-06T23:40:15.165Z,48.13
2019-04-06T23:42:41.989Z,44.80
2019-04-06T23:45:09.127Z,51.33
2019-04-06T23:47:35.555Z,48.10
2019-04-06T23:50:03.620Z,46.30
2019-04-06T23:52:29.952Z,52.60
2019-04-06T23:54:57.140Z,48.00
2019-04-06T23:57:23.822Z,48.67
2019-04-06T23:59:50.277Z,47.33
